Time;durP1;ratioP1;P1;durP2;ratioP2;P2;SDS_P1;SDS_P2;PMS_P1;PMS_P2;Temp;Humidity;BMP_temperature;BMP_pressure;BME280_temperature;BME280_humidity;BME280_pressure;Samples;Min_cycle;Max_cycle;Signal;HPM_P1;HPM_P2
2021/07/12 00:01:12;;;;;;;56.37;53.30;;;;;;;;;;5038148;28;20453;-70
2021/07/12 00:03:39;;;;;;;51.47;48.70;;;;;;;;;;5032529;28;20468;-71
2021/07/12 00:06:06;;;;;;;54.80;51.60;;;;;;;;;;5046454;28;20836;-71
2021/07/12 00:08:33;;;;;;;56.97;54.00;;;;;;;;;;5056097;28;20450;-71
2021/07/12 00:11:01;;;;;;;57.80;54.70;;;;;;;;;;5056058;28;20451;-72
2021/07/12 00:13:28;;;;;;;56.53;53.63;;;;;;;;;;5055532;28;20454;-70
2021/07/12 00:15:56;;;;;;;60.03;56.93;;;;;;;;;;5045542;28;20955;-71
2021/07/12 00:18:23;;;;;;;55.97;53.07;;;;;;;;;;5036196;28;20460;-71
2021/07/12 00:20:51;;;;;;;57.93;54.93;;;;;;;;;;5046016;28;20450;-71
2021/07/12 00:23:18;;;;;;;53.80;51.00;;;;;;;;;;5055933;28;20462;-71
2021/07/12 00:25:45;;;;;;;54.73;51.80;;;;;;;;;;5059165;28;20578;-71
2021/07/12 00:28:12;;;;;;;53.93;51.10;;;;;;;;;;5046521;28;20452;-71
2021/07/12 00:30:39;;;;;;;55.07;52.27;;;;;;;;;;5040939;28;20972;-72
2021/07/12 00:33:08;;;;;;;55.57;52.67;;;;;;;;;;5056044;28;20460;-70
2021/07/12 00:35:35;;;;;;;52.50;49.70;;;;;;;;;;5051846;28;20439;-72
2021/07/12 00:38:02;;;;;;;53.70;50.90;;;;;;;;;;5056445;28;20476;-71
2021/07/12 00:40:29;;;;;;;57.50;54.50;;;;;;;;;;5057262;28;20462;-72
2021/07/12 00:42:57;;;;;;;53.67;50.77;;;;;;;;;;5055512;28;20504;-72
2021/07/12 00:45:26;;;;;;;54.97;52.07;;;;;;;;;;5055162;28;20490;-70
2021/07/12 00:47:54;;;;;;;57.03;54.10;;;;;;;;;;5055464;28;20996;-71
2021/07/12 00:50:24;;;;;;;56.70;53.80;;;;;;;;;;5046865;28;20981;-71
2021/07/12 00:52:52;;;;;;;57.37;54.30;;;;;;;;;;5036280;28;20452;-73
2021/07/12 00:55:21;;;;;;;60.93;57.40;;;;;;;;;;5044816;28;20474;-71
2021/07/12 00:57:48;;;;;;;60.67;57.57;;;;;;;;;;5055872;28;20478;-71
2021/07/12 01:00:16;;;;;;;62.27;59.07;;;;;;;;;;5054826;28;20798;-71
2021/07/12 01:02:43;;;;;;;59.07;55.70;;;;;;;;;;5055439;28;20448;-71
2021/07/12 01:05:13;;;;;;;57.77;54.83;;;;;;;;;;5051631;28;20483;-71
2021/07/12 01:07:42;;;;;;;58.33;55.37;;;;;;;;;;5054766;28;20982;-71
2021/07/12 01:10:10;;;;;;;59.53;56.43;;;;;;;;;;5055072;28;20457;-74
2021/07/12 01:12:40;;;;;;;56.50;53.60;;;;;;;;;;5055422;28;20483;-71
2021/07/12 01:15:10;;;;;;;53.43;50.40;;;;;;;;;;5054927;28;20444;-72
2021/07/12 01:17:42;;;;;;;55.50;52.60;;;;;;;;;;5054699;28;20474;-71
2021/07/12 01:20:33;;;;;;;53.27;50.47;;;;;;;;;;5049471;28;20442;-73
2021/07/12 01:23:11;;;;;;;53.00;50.00;;;;;;;;;;5055409;28;20505;-71
2021/07/12 01:25:55;;;;;;;50.10;47.50;;;;;;;;;;5054127;28;20472;-71
2021/07/12 01:28:41;;;;;;;50.43;47.73;;;;;;;;;;5054717;28;20857;-72
2021/07/12 01:31:20;;;;;;;50.40;47.53;;;;;;;;;;5051767;28;20452;-71
2021/07/12 01:33:50;;;;;;;47.87;45.33;;;;;;;;;;5055066;28;20449;-71
2021/07/12 01:36:22;;;;;;;49.70;47.10;;;;;;;;;;5053747;28;21020;-70
2021/07/12 01:38:53;;;;;;;50.47;47.77;;;;;;;;;;5055391;28;20431;-71
2021/07/12 01:41:24;;;;;;;49.00;46.30;;;;;;;;;;5054770;28;20969;-72
2021/07/12 01:43:54;;;;;;;48.47;45.90;;;;;;;;;;5054362;28;20916;-71
2021/07/12 01:46:24;;;;;;;51.47;48.67;;;;;;;;;;5053706;28;21016;-71
2021/07/12 01:48:59;;;;;;;51.40;48.67;;;;;;;;;;5054888;28;20451;-71
2021/07/12 01:51:29;;;;;;;52.80;49.90;;;;;;;;;;5054613;28;20443;-71
2021/07/12 01:53:59;;;;;;;50.77;47.97;;;;;;;;;;5054694;28;20939;-71
2021/07/12 01:56:30;;;;;;;49.63;47.03;;;;;;;;;;5049181;28;21072;-71
2021/07/12 01:59:00;;;;;;;54.20;51.30;;;;;;;;;;5055071;28;20542;-71
2021/07/12 02:01:29;;;;;;;52.30;49.43;;;;;;;;;;5054201;28;20466;-70
2021/07/12 02:03:58;;;;;;;50.83;47.93;;;;;;;;;;5054218;28;20451;-70
2021/07/12 02:06:26;;;;;;;51.43;48.63;;;;;;;;;;5053555;28;20494;-70
2021/07/12 02:08:55;;;;;;;52.23;49.53;;;;;;;;;;5054381;28;20462;-70
2021/07/12 02:11:22;;;;;;;50.27;47.60;;;;;;;;;;5051424;28;20447;-70
2021/07/12 02:13:51;;;;;;;49.70;47.00;;;;;;;;;;5038928;28;20969;-70
2021/07/12 02:16:20;;;;;;;49.03;46.20;;;;;;;;;;5048156;28;21013;-70
2021/07/12 02:18:47;;;;;;;48.27;45.60;;;;;;;;;;5054537;28;20452;-73
2021/07/12 02:21:16;;;;;;;48.50;45.70;;;;;;;;;;5051961;28;20447;-71
2021/07/12 02:23:44;;;;;;;47.80;45.20;;;;;;;;;;5054269;28;20447;-71
2021/07/12 02:26:12;;;;;;;48.90;46.20;;;;;;;;;;5053691;28;20492;-73
2021/07/12 02:28:44;;;;;;;47.70;44.80;;;;;;;;;;5050780;28;20455;-73
2021/07/12 02:31:11;;;;;;;45.73;42.93;;;;;;;;;;5051580;28;20447;-70
2021/07/12 02:33:38;;;;;;;46.00;43.40;;;;;;;;;;5053232;28;20458;-70
2021/07/12 02:36:05;;;;;;;44.80;42.30;;;;;;;;;;5053192;28;20464;-70
2021/07/12 02:38:34;;;;;;;42.20;39.80;;;;;;;;;;5053047;28;20825;-70
2021/07/12 02:41:02;;;;;;;42.50;40.00;;;;;;;;;;5053578;28;20975;-73
2021/07/12 02:43:29;;;;;;;43.47;40.67;;;;;;;;;;5053120;28;20458;-70
2021/07/12 02:45:57;;;;;;;43.13;40.60;;;;;;;;;;5051688;28;20480;-70
2021/07/12 02:48:24;;;;;;;42.50;40.10;;;;;;;;;;5053005;28;20458;-71
2021/07/12 02:50:53;;;;;;;42.90;40.30;;;;;;;;;;5049471;28;20830;-70
2021/07/12 02:53:22;;;;;;;43.73;41.20;;;;;;;;;;5049939;28;20451;-71
2021/07/12 02:55:50;;;;;;;40.10;37.90;;;;;;;;;;5052397;28;21153;-70
2021/07/12 02:58:18;;;;;;;41.30;38.90;;;;;;;;;;5053237;28;20451;-69
2021/07/12 03:00:45;;;;;;;40.90;38.47;;;;;;;;;;5050560;28;20454;-70
2021/07/12 03:03:12;;;;;;;41.57;39.20;;;;;;;;;;5047989;28;20454;-70
2021/07/12 03:05:39;;;;;;;40.57;38.17;;;;;;;;;;5053242;28;20483;-70
2021/07/12 03:08:07;;;;;;;40.70;38.20;;;;;;;;;;5052809;28;20830;-71
2021/07/12 03:10:38;;;;;;;41.33;39.03;;;;;;;;;;5053479;28;20443;-71
2021/07/12 03:13:08;;;;;;;41.37;38.63;;;;;;;;;;5051748;28;20452;-72
2021/07/12 03:15:38;;;;;;;42.80;40.33;;;;;;;;;;5053285;28;20440;-71
2021/07/12 03:18:07;;;;;;;42.77;40.23;;;;;;;;;;5048216;28;20452;-71
2021/07/12 03:20:37;;;;;;;43.27;40.80;;;;;;;;;;5052789;28;20454;-70
2021/07/12 03:23:05;;;;;;;42.43;40.00;;;;;;;;;;5052093;28;20451;-70
2021/07/12 03:25:34;;;;;;;41.60;39.07;;;;;;;;;;5051891;28;20479;-70
2021/07/12 03:28:01;;;;;;;40.67;38.27;;;;;;;;;;5051655;28;20480;-71
2021/07/12 03:30:31;;;;;;;42.23;39.73;;;;;;;;;;5053245;28;20458;-71
2021/07/12 03:32:58;;;;;;;40.90;38.40;;;;;;;;;;5051301;28;20822;-70
2021/07/12 03:35:27;;;;;;;40.80;38.40;;;;;;;;;;5052890;28;20502;-70
2021/07/12 03:37:54;;;;;;;40.10;37.63;;;;;;;;;;5052577;28;20477;-71
2021/07/12 03:40:22;;;;;;;41.23;38.83;;;;;;;;;;5051961;28;20454;-71
2021/07/12 03:42:49;;;;;;;41.80;39.30;;;;;;;;;;5054741;28;20463;-71
2021/07/12 03:45:16;;;;;;;42.43;39.80;;;;;;;;;;5056006;28;20487;-71
2021/07/12 03:47:46;;;;;;;41.73;39.33;;;;;;;;;;5057204;28;20820;-73
2021/07/12 03:50:14;;;;;;;42.43;39.93;;;;;;;;;;5056738;28;20462;-72
2021/07/12 03:52:42;;;;;;;43.70;40.80;;;;;;;;;;5041958;28;20452;-72
2021/07/12 03:55:10;;;;;;;44.23;41.73;;;;;;;;;;5048005;28;20455;-72
2021/07/12 03:57:37;;;;;;;44.13;41.60;;;;;;;;;;5057015;28;20491;-71
2021/07/12 04:00:06;;;;;;;44.77;42.17;;;;;;;;;;5050696;28;20467;-71
2021/07/12 04:02:33;;;;;;;43.53;40.83;;;;;;;;;;5036843;28;20448;-70
2021/07/12 04:05:01;;;;;;;44.33;41.70;;;;;;;;;;5045630;28;20819;-70
2021/07/12 04:07:28;;;;;;;41.90;39.50;;;;;;;;;;5048745;28;20465;-70
2021/07/12 04:09:55;;;;;;;43.53;40.60;;;;;;;;;;5044712;28;20459;-70
2021/07/12 04:12:24;;;;;;;43.03;40.20;;;;;;;;;;5056547;28;20452;-70
2021/07/12 04:14:51;;;;;;;41.70;39.20;;;;;;;;;;5056867;28;20454;-69
2021/07/12 04:17:19;;;;;;;41.97;39.47;;;;;;;;;;5056707;28;20463;-70
2021/07/12 04:19:46;;;;;;;40.87;38.30;;;;;;;;;;5055777;28;20448;-70
2021/07/12 04:22:15;;;;;;;39.97;37.57;;;;;;;;;;5055474;28;20451;-70
2021/07/12 04:24:42;;;;;;;39.90;37.60;;;;;;;;;;5055742;28;20450;-70
2021/07/12 04:27:09;;;;;;;40.73;38.33;;;;;;;;;;5083290;22;20996;-66
2021/07/12 04:29:36;;;;;;;39.23;36.83;;;;;;;;;;5072382;28;20465;-67
2021/07/12 04:32:03;;;;;;;39.50;37.10;;;;;;;;;;5073904;28;20956;-67
2021/07/12 04:34:31;;;;;;;40.17;37.57;;;;;;;;;;5074047;28;20454;-67
2021/07/12 04:36:58;;;;;;;41.20;38.50;;;;;;;;;;5077533;28;20465;-67
2021/07/12 04:39:26;;;;;;;40.63;38.23;;;;;;;;;;5074251;28;20451;-67
2021/07/12 04:41:54;;;;;;;42.43;39.57;;;;;;;;;;5074164;28;20446;-68
2021/07/12 04:44:21;;;;;;;40.47;37.77;;;;;;;;;;5074404;28;20446;-67
2021/07/12 04:46:48;;;;;;;41.00;38.50;;;;;;;;;;5094612;28;20488;-68
2021/07/12 04:49:15;;;;;;;40.83;38.37;;;;;;;;;;5094290;28;20454;-68
2021/07/12 04:51:43;;;;;;;41.10;38.60;;;;;;;;;;5075314;28;20447;-67
2021/07/12 04:54:10;;;;;;;41.40;38.80;;;;;;;;;;5074089;28;20465;-68
2021/07/12 04:56:39;;;;;;;41.03;38.43;;;;;;;;;;5074217;28;20538;-68
2021/07/12 04:59:08;;;;;;;41.20;38.70;;;;;;;;;;5074383;28;20447;-68
2021/07/12 05:01:35;;;;;;;42.33;39.77;;;;;;;;;;5073765;28;20480;-67
2021/07/12 05:04:03;;;;;;;40.40;37.80;;;;;;;;;;5073534;28;20455;-69
2021/07/12 05:06:30;;;;;;;41.87;39.20;;;;;;;;;;5073546;28;20478;-64
2021/07/12 05:08:57;;;;;;;45.00;42.20;;;;;;;;;;5089013;28;20456;-68
2021/07/12 05:11:24;;;;;;;44.90;42.00;;;;;;;;;;5092896;28;20450;-66
2021/07/12 05:13:53;;;;;;;43.83;41.10;;;;;;;;;;5094044;28;20460;-66
2021/07/12 05:16:20;;;;;;;46.03;43.03;;;;;;;;;;5093186;28;20450;-66
2021/07/12 05:18:48;;;;;;;45.20;42.40;;;;;;;;;;5079642;28;20485;-66
2021/07/12 05:21:15;;;;;;;42.80;39.33;;;;;;;;;;5073705;28;20518;-65
2021/07/12 05:23:42;;;;;;;43.37;40.30;;;;;;;;;;5073468;28;20465;-66
2021/07/12 05:26:09;;;;;;;46.57;43.50;;;;;;;;;;5073474;28;21115;-65
2021/07/12 05:28:37;;;;;;;48.30;44.93;;;;;;;;;;5090700;28;20474;-66
2021/07/12 05:31:06;;;;;;;49.03;45.60;;;;;;;;;;5093728;28;20473;-65
2021/07/12 05:33:33;;;;;;;50.43;46.83;;;;;;;;;;5085774;28;20447;-64
2021/07/12 05:36:00;;;;;;;49.83;46.63;;;;;;;;;;5086803;28;20450;-64
2021/07/12 05:38:27;;;;;;;53.40;50.10;;;;;;;;;;5093591;28;20462;-67
2021/07/12 05:40:55;;;;;;;60.70;56.80;;;;;;;;;;5091728;28;20462;-66
2021/07/12 05:43:22;;;;;;;64.37;60.47;;;;;;;;;;5093566;28;20456;-66
2021/07/12 05:45:49;;;;;;;61.77;57.80;;;;;;;;;;5092537;28;20984;-66
2021/07/12 05:48:18;;;;;;;52.97;49.77;;;;;;;;;;5093648;28;20462;-66
2021/07/12 05:50:45;;;;;;;49.13;46.03;;;;;;;;;;5064996;28;20451;-65
2021/07/12 05:53:14;;;;;;;48.60;45.70;;;;;;;;;;5073633;28;20451;-66
2021/07/12 05:55:41;;;;;;;46.07;43.20;;;;;;;;;;5073341;28;20451;-67
2021/07/12 05:58:08;;;;;;;46.47;43.47;;;;;;;;;;5073958;28;20548;-67
2021/07/12 06:00:35;;;;;;;44.37;41.73;;;;;;;;;;5072809;28;20443;-66
2021/07/12 06:03:03;;;;;;;47.30;44.60;;;;;;;;;;5072808;28;20451;-66
2021/07/12 06:05:31;;;;;;;51.90;49.00;;;;;;;;;;5072329;28;20447;-66
2021/07/12 06:07:58;;;;;;;41.90;39.50;;;;;;;;;;5078980;28;21008;-67
2021/07/12 06:10:25;;;;;;;40.83;38.37;;;;;;;;;;5092663;28;20827;-66
2021/07/12 06:12:53;;;;;;;38.40;36.20;;;;;;;;;;5075884;28;20475;-67
2021/07/12 06:15:20;;;;;;;46.27;43.60;;;;;;;;;;5072587;28;20537;-66
2021/07/12 06:17:47;;;;;;;46.50;43.90;;;;;;;;;;5071582;28;20478;-66
2021/07/12 06:20:16;;;;;;;44.70;42.00;;;;;;;;;;5072612;28;20447;-66
2021/07/12 06:22:50;;;;;;;44.47;42.07;;;;;;;;;;5061013;28;20452;-67
2021/07/12 06:25:24;;;;;;;41.40;39.10;;;;;;;;;;5054268;28;20462;-66
2021/07/12 06:27:52;;;;;;;41.17;38.77;;;;;;;;;;5071484;28;20490;-66
2021/07/12 06:30:20;;;;;;;44.57;42.00;;;;;;;;;;5071492;28;20479;-66
2021/07/12 06:32:47;;;;;;;46.63;43.93;;;;;;;;;;5072178;28;20972;-68
2021/07/12 06:35:15;;;;;;;44.17;41.47;;;;;;;;;;5062069;28;20945;-69
2021/07/12 06:37:42;;;;;;;44.13;41.63;;;;;;;;;;5071689;28;20471;-69
2021/07/12 06:40:11;;;;;;;42.53;39.93;;;;;;;;;;5068596;28;20521;-64
2021/07/12 06:42:38;;;;;;;43.23;40.83;;;;;;;;;;5072317;28;20461;-68
2021/07/12 06:45:06;;;;;;;43.67;40.90;;;;;;;;;;5072480;28;20450;-68
2021/07/12 06:47:33;;;;;;;42.03;39.53;;;;;;;;;;5068325;28;20494;-68
2021/07/12 06:50:00;;;;;;;42.03;39.73;;;;;;;;;;5071462;28;20451;-70
2021/07/12 06:52:28;;;;;;;43.40;40.73;;;;;;;;;;5062715;28;20479;-68
2021/07/12 06:54:55;;;;;;;42.10;39.60;;;;;;;;;;5072036;28;20447;-69
2021/07/12 06:57:23;;;;;;;42.37;39.97;;;;;;;;;;5083723;28;20471;-68
2021/07/12 06:59:51;;;;;;;40.40;38.10;;;;;;;;;;5068646;28;20533;-67
2021/07/12 07:02:19;;;;;;;38.30;36.00;;;;;;;;;;5071851;28;20487;-68
2021/07/12 07:04:46;;;;;;;36.90;34.60;;;;;;;;;;5077275;28;20453;-67
2021/07/12 07:07:13;;;;;;;35.93;33.43;;;;;;;;;;5071306;28;20856;-69
2021/07/12 07:09:40;;;;;;;35.77;33.40;;;;;;;;;;5072082;28;20451;-64
2021/07/12 07:12:08;;;;;;;38.97;36.23;;;;;;;;;;5079032;28;20545;-65
2021/07/12 07:14:36;;;;;;;36.33;33.73;;;;;;;;;;5085773;28;20455;-68
2021/07/12 07:17:03;;;;;;;39.00;36.67;;;;;;;;;;5067540;28;20483;-68
2021/07/12 07:19:30;;;;;;;39.60;37.30;;;;;;;;;;5061948;28;20833;-69
2021/07/12 07:21:58;;;;;;;42.93;40.43;;;;;;;;;;5058642;28;20454;-69
2021/07/12 07:24:25;;;;;;;41.53;39.13;;;;;;;;;;5068289;28;20898;-68
2021/07/12 07:26:52;;;;;;;41.30;38.80;;;;;;;;;;5051507;28;20490;-69
2021/07/12 07:29:21;;;;;;;42.63;40.27;;;;;;;;;;5052961;28;20453;-68
2021/07/12 07:31:50;;;;;;;39.30;37.00;;;;;;;;;;5072471;28;20455;-68
2021/07/12 07:34:17;;;;;;;44.47;41.97;;;;;;;;;;5071595;28;20446;-68
2021/07/12 07:36:44;;;;;;;48.13;44.77;;;;;;;;;;5071227;28;20469;-67
2021/07/12 07:39:12;;;;;;;40.60;38.40;;;;;;;;;;5071636;28;20946;-68
2021/07/12 07:41:40;;;;;;;36.00;34.00;;;;;;;;;;5070355;28;20474;-68
2021/07/12 07:44:07;;;;;;;34.60;32.60;;;;;;;;;;5071638;28;20516;-67
2021/07/12 07:46:35;;;;;;;33.20;31.23;;;;;;;;;;5088709;28;20488;-67
2021/07/12 07:49:07;;;;;;;32.27;30.20;;;;;;;;;;5091733;28;20960;-67
2021/07/12 07:51:34;;;;;;;29.50;27.83;;;;;;;;;;5071829;28;20836;-67
2021/07/12 07:54:01;;;;;;;29.57;27.87;;;;;;;;;;5071398;28;20458;-67
2021/07/12 07:56:29;;;;;;;28.20;26.60;;;;;;;;;;5070787;28;20827;-67
2021/07/12 07:58:56;;;;;;;28.30;26.53;;;;;;;;;;5070674;28;20462;-66
2021/07/12 08:01:23;;;;;;;29.27;27.40;;;;;;;;;;5070663;28;20435;-67
2021/07/12 08:03:50;;;;;;;29.03;27.43;;;;;;;;;;5069198;28;20467;-67
2021/07/12 08:06:18;;;;;;;29.47;27.87;;;;;;;;;;5070951;28;20455;-67
2021/07/12 08:08:46;;;;;;;30.67;28.67;;;;;;;;;;5071052;28;20479;-66
2021/07/12 08:11:13;;;;;;;31.53;29.77;;;;;;;;;;5073616;28;20460;-66
2021/07/12 08:13:40;;;;;;;30.87;28.93;;;;;;;;;;5085119;28;20451;-66
2021/07/12 08:16:07;;;;;;;32.07;30.17;;;;;;;;;;5071377;28;20445;-68
2021/07/12 08:18:34;;;;;;;34.17;31.97;;;;;;;;;;5078119;28;20477;-67
2021/07/12 08:21:02;;;;;;;33.10;31.10;;;;;;;;;;5070755;28;20461;-68
2021/07/12 08:23:30;;;;;;;30.50;28.57;;;;;;;;;;5071147;28;20460;-67
2021/07/12 08:25:57;;;;;;;31.70;29.53;;;;;;;;;;5070834;28;20973;-66
2021/07/12 08:28:25;;;;;;;33.10;31.10;;;;;;;;;;5089212;28;20482;-67
2021/07/12 08:30:52;;;;;;;32.50;30.47;;;;;;;;;;5081544;28;20458;-66
2021/07/12 08:33:19;;;;;;;34.03;32.03;;;;;;;;;;5075289;28;20447;-67
2021/07/12 08:35:47;;;;;;;33.50;31.40;;;;;;;;;;5094263;28;20944;-67
2021/07/12 08:38:14;;;;;;;32.13;30.07;;;;;;;;;;5088832;28;20471;-70
2021/07/12 08:40:42;;;;;;;34.43;32.20;;;;;;;;;;5074560;28;20462;-67
2021/07/12 08:43:11;;;;;;;32.33;30.13;;;;;;;;;;5086237;28;20442;-66
2021/07/12 08:45:38;;;;;;;32.60;30.40;;;;;;;;;;5095024;28;20536;-66
2021/07/12 08:48:06;;;;;;;32.93;30.90;;;;;;;;;;5093904;28;20504;-66
2021/07/12 08:50:33;;;;;;;32.50;30.40;;;;;;;;;;5094863;28;20859;-66
2021/07/12 08:53:01;;;;;;;33.13;31.13;;;;;;;;;;5085748;28;20956;-67
2021/07/12 08:55:28;;;;;;;35.30;33.20;;;;;;;;;;5054551;28;20452;-66
2021/07/12 08:58:01;;;;;;;39.87;37.37;;;;;;;;;;5087603;28;20459;-66
2021/07/12 09:00:39;;;;;;;40.87;38.47;;;;;;;;;;5072955;28;20451;-66
2021/07/12 09:03:18;;;;;;;40.47;38.00;;;;;;;;;;5073808;28;20941;-67
2021/07/12 09:05:52;;;;;;;39.63;37.27;;;;;;;;;;5066198;28;20483;-67
2021/07/12 09:08:34;;;;;;;37.53;35.23;;;;;;;;;;5064817;28;20499;-67
2021/07/12 09:11:04;;;;;;;42.43;40.00;;;;;;;;;;5059464;28;20942;-66
2021/07/12 09:13:42;;;;;;;40.10;37.70;;;;;;;;;;5071241;28;20444;-66
2021/07/12 09:16:26;;;;;;;39.50;37.20;;;;;;;;;;5078077;28;20449;-66
2021/07/12 09:19:02;;;;;;;41.13;38.70;;;;;;;;;;5094167;28;21041;-67
2021/07/12 09:21:32;;;;;;;42.30;40.00;;;;;;;;;;5093396;28;20449;-67
2021/07/12 09:24:12;;;;;;;37.60;35.50;;;;;;;;;;5087294;28;20451;-66
2021/07/12 09:26:42;;;;;;;37.37;35.20;;;;;;;;;;5060875;28;20504;-67
2021/07/12 09:29:14;;;;;;;37.67;35.30;;;;;;;;;;5076508;28;20447;-67
2021/07/12 09:31:41;;;;;;;37.47;35.27;;;;;;;;;;5073862;28;20434;-66
2021/07/12 09:34:08;;;;;;;37.50;35.30;;;;;;;;;;5073158;28;20451;-66
2021/07/12 09:36:36;;;;;;;36.90;34.80;;;;;;;;;;5091927;28;20824;-66
2021/07/12 09:39:22;;;;;;;38.63;36.30;;;;;;;;;;5082100;28;20444;-67
2021/07/12 09:41:49;;;;;;;37.37;35.17;;;;;;;;;;5065381;28;20454;-67
2021/07/12 09:44:20;;;;;;;35.80;33.80;;;;;;;;;;5066150;28;20447;-66
2021/07/12 09:46:47;;;;;;;38.83;36.63;;;;;;;;;;5073643;28;20454;-67
2021/07/12 09:49:15;;;;;;;37.80;35.60;;;;;;;;;;5074033;28;20451;-66
2021/07/12 09:51:42;;;;;;;38.00;35.80;;;;;;;;;;5074334;28;20447;-66
2021/07/12 09:54:20;;;;;;;38.53;36.13;;;;;;;;;;5076464;28;20818;-66
2021/07/12 09:56:47;;;;;;;36.53;34.43;;;;;;;;;;5072986;28;20466;-66
2021/07/12 09:59:15;;;;;;;36.80;34.70;;;;;;;;;;5074292;28;20453;-67
2021/07/12 10:01:48;;;;;;;38.53;36.33;;;;;;;;;;5075543;28;20483;-66
2021/07/12 10:04:15;;;;;;;37.30;35.10;;;;;;;;;;5077437;28;20450;-66
2021/07/12 10:06:42;;;;;;;36.27;34.17;;;;;;;;;;5074051;28;20453;-67
2021/07/12 10:09:10;;;;;;;40.67;38.33;;;;;;;;;;5083001;28;20482;-66
2021/07/12 10:11:37;;;;;;;37.00;34.90;;;;;;;;;;5093138;28;20454;-66
2021/07/12 10:14:04;;;;;;;34.70;32.70;;;;;;;;;;5082870;28;20452;-68
2021/07/12 10:16:32;;;;;;;38.03;35.70;;;;;;;;;;5055304;28;20485;-67
2021/07/12 10:19:00;;;;;;;38.00;35.87;;;;;;;;;;5071097;28;20839;-67
2021/07/12 10:21:35;;;;;;;36.27;34.17;;;;;;;;;;5073897;28;20453;-67
2021/07/12 10:24:02;;;;;;;37.80;35.60;;;;;;;;;;5056476;28;20447;-66
2021/07/12 10:26:50;;;;;;;31.20;29.40;;;;;;;;;;5068275;28;20970;-67
2021/07/12 10:29:18;;;;;;;32.80;30.90;;;;;;;;;;5086433;22;21347;-67
2021/07/12 10:31:55;;;;;;;32.97;31.10;;;;;;;;;;5076520;28;20462;-67
2021/07/12 10:34:28;;;;;;;34.20;32.20;;;;;;;;;;5071999;28;20451;-67
2021/07/12 10:36:59;;;;;;;34.03;32.13;;;;;;;;;;5092062;28;20469;-66
2021/07/12 10:39:41;;;;;;;33.73;31.73;;;;;;;;;;5090814;28;20490;-67
2021/07/12 10:42:08;;;;;;;33.93;31.13;;;;;;;;;;5050945;28;20443;-67
2021/07/12 10:44:50;;;;;;;34.07;31.80;;;;;;;;;;5054811;28;20447;-66
2021/07/12 10:47:32;;;;;;;35.77;33.40;;;;;;;;;;5054705;28;20833;-67
2021/07/12 10:50:01;;;;;;;32.60;30.80;;;;;;;;;;5060434;28;20449;-66
2021/07/12 10:52:44;;;;;;;35.83;33.93;;;;;;;;;;5079529;28;20814;-67
2021/07/12 10:55:12;;;;;;;34.23;32.43;;;;;;;;;;5088001;28;20835;-65
2021/07/12 10:57:40;;;;;;;34.97;32.70;;;;;;;;;;5091752;28;20487;-66
2021/07/12 11:00:09;;;;;;;33.10;31.23;;;;;;;;;;5086212;28;20447;-65
2021/07/12 11:02:36;;;;;;;33.03;30.93;;;;;;;;;;5071475;28;20450;-68
2021/07/12 11:05:06;;;;;;;34.10;32.10;;;;;;;;;;5071792;28;20983;-67
2021/07/12 11:07:40;;;;;;;33.87;32.07;;;;;;;;;;5071758;28;20486;-68
2021/07/12 11:10:20;;;;;;;32.90;31.10;;;;;;;;;;5077085;28;20457;-65
2021/07/12 11:12:52;;;;;;;32.17;30.17;;;;;;;;;;5079440;28;20442;-67
2021/07/12 11:15:37;;;;;;;32.27;30.27;;;;;;;;;;5071797;28;20447;-68
2021/07/12 11:18:06;;;;;;;32.40;30.60;;;;;;;;;;5081312;28;20458;-67
2021/07/12 11:20:57;;;;;;;30.73;29.00;;;;;;;;;;5084193;28;20447;-68
2021/07/12 11:23:42;;;;;;;32.40;30.70;;;;;;;;;;5071521;28;20451;-66
2021/07/12 11:26:27;;;;;;;31.53;29.83;;;;;;;;;;5080481;28;20462;-67
2021/07/12 11:28:57;;;;;;;32.40;30.77;;;;;;;;;;5073596;28;20486;-67
2021/07/12 11:31:40;;;;;;;30.17;28.57;;;;;;;;;;5082239;28;20454;-66
2021/07/12 11:34:08;;;;;;;31.80;30.00;;;;;;;;;;5091694;28;20450;-66
2021/07/12 11:36:35;;;;;;;30.77;29.03;;;;;;;;;;5090586;28;20445;-66
2021/07/12 11:39:02;;;;;;;29.97;28.37;;;;;;;;;;5091426;28;20472;-66
2021/07/12 11:41:29;;;;;;;31.93;30.23;;;;;;;;;;5072072;28;20451;-67
2021/07/12 11:44:07;;;;;;;28.23;26.73;;;;;;;;;;5071727;28;20455;-66
2021/07/12 11:46:35;;;;;;;31.03;29.33;;;;;;;;;;5089192;28;20449;-68
2021/07/12 11:49:05;;;;;;;27.77;26.27;;;;;;;;;;5091445;28;20579;-67
2021/07/12 11:51:33;;;;;;;28.23;26.83;;;;;;;;;;5073590;28;20445;-67
2021/07/12 11:54:00;;;;;;;28.23;26.73;;;;;;;;;;5072845;28;20454;-68
2021/07/12 11:56:27;;;;;;;28.00;26.50;;;;;;;;;;5074645;28;20455;-67
2021/07/12 11:58:58;;;;;;;31.13;29.53;;;;;;;;;;5072894;28;20467;-67
2021/07/12 12:01:27;;;;;;;29.80;28.20;;;;;;;;;;5070685;28;20461;-66
2021/07/12 12:04:01;;;;;;;29.13;27.63;;;;;;;;;;5073486;28;20453;-67
2021/07/12 12:06:28;;;;;;;28.50;26.97;;;;;;;;;;5077509;28;20449;-67
2021/07/12 12:09:02;;;;;;;28.63;26.90;;;;;;;;;;5094839;28;20489;-67
2021/07/12 12:11:29;;;;;;;28.40;26.83;;;;;;;;;;5092024;28;20450;-67
2021/07/12 12:13:57;;;;;;;27.30;25.90;;;;;;;;;;5075116;28;20447;-67
2021/07/12 12:16:26;;;;;;;28.87;27.37;;;;;;;;;;5074874;28;20942;-66
2021/07/12 12:18:54;;;;;;;28.30;26.80;;;;;;;;;;5074886;28;20467;-67
2021/07/12 12:21:22;;;;;;;28.27;26.77;;;;;;;;;;5074223;28;20451;-67
2021/07/12 12:23:49;;;;;;;29.27;27.77;;;;;;;;;;5093450;28;21002;-66
2021/07/12 12:26:22;;;;;;;27.77;26.27;;;;;;;;;;5095017;28;20456;-67
2021/07/12 12:28:51;;;;;;;29.57;28.07;;;;;;;;;;5075008;28;20539;-67
2021/07/12 12:31:21;;;;;;;27.03;25.53;;;;;;;;;;5075180;28;20545;-66
2021/07/12 12:33:56;;;;;;;26.27;24.90;;;;;;;;;;5082595;28;20485;-65
2021/07/12 12:36:25;;;;;;;26.70;25.20;;;;;;;;;;5067820;28;20459;-65
2021/07/12 12:38:53;;;;;;;26.67;25.27;;;;;;;;;;5054402;28;20482;-65
2021/07/12 12:41:22;;;;;;;28.30;26.67;;;;;;;;;;5054549;28;20444;-65
2021/07/12 12:44:00;;;;;;;27.60;26.10;;;;;;;;;;5054702;28;20451;-66
2021/07/12 12:46:27;;;;;;;27.40;25.87;;;;;;;;;;5054254;28;20824;-66
2021/07/12 12:48:55;;;;;;;26.80;25.40;;;;;;;;;;5054437;28;20487;-66
2021/07/12 12:51:28;;;;;;;27.27;25.73;;;;;;;;;;5054251;28;20451;-67
2021/07/12 12:53:58;;;;;;;28.43;26.93;;;;;;;;;;5067100;28;20476;-68
2021/07/12 12:56:26;;;;;;;26.60;25.20;;;;;;;;;;5074473;28;20461;-67
2021/07/12 12:58:57;;;;;;;27.00;25.47;;;;;;;;;;5069639;28;20483;-67
2021/07/12 13:01:29;;;;;;;26.43;25.13;;;;;;;;;;5072856;28;20519;-66
2021/07/12 13:04:05;;;;;;;27.97;26.50;;;;;;;;;;5073896;28;20930;-66
2021/07/12 13:06:38;;;;;;;27.67;26.07;;;;;;;;;;5061531;28;20471;-66
2021/07/12 13:09:06;;;;;;;28.10;26.60;;;;;;;;;;5071502;28;21008;-66
2021/07/12 13:11:35;;;;;;;29.40;27.90;;;;;;;;;;5074209;28;20516;-65
2021/07/12 13:14:02;;;;;;;29.73;28.13;;;;;;;;;;5059078;28;20817;-66
2021/07/12 13:16:29;;;;;;;28.90;27.40;;;;;;;;;;5073713;28;20447;-67
2021/07/12 13:18:56;;;;;;;29.70;28.10;;;;;;;;;;5069401;28;20505;-65
2021/07/12 13:21:38;;;;;;;33.80;31.90;;;;;;;;;;5072818;28;20465;-66
2021/07/12 13:24:07;;;;;;;31.33;29.53;;;;;;;;;;5084552;28;20473;-67
2021/07/12 13:26:34;;;;;;;35.00;33.10;;;;;;;;;;5081294;28;20473;-66
2021/07/12 13:29:01;;;;;;;35.03;32.97;;;;;;;;;;5073521;28;20491;-67
2021/07/12 13:31:28;;;;;;;33.83;31.80;;;;;;;;;;5072608;28;20484;-66
2021/07/12 13:33:56;;;;;;;34.90;32.90;;;;;;;;;;5080888;28;20465;-66
2021/07/12 13:36:23;;;;;;;34.90;32.90;;;;;;;;;;5085990;28;20467;-65
2021/07/12 13:38:50;;;;;;;34.97;33.07;;;;;;;;;;5073294;28;20474;-67
2021/07/12 13:41:18;;;;;;;35.87;33.87;;;;;;;;;;5070931;28;20485;-66
2021/07/12 13:43:45;;;;;;;35.73;33.63;;;;;;;;;;5065420;28;20472;-66
2021/07/12 13:46:12;;;;;;;36.10;34.00;;;;;;;;;;5074566;28;20942;-66
2021/07/12 13:48:40;;;;;;;34.80;32.90;;;;;;;;;;5078039;28;21730;-66
2021/07/12 13:51:07;;;;;;;33.90;32.00;;;;;;;;;;5053061;28;20447;-67
2021/07/12 13:53:35;;;;;;;33.00;31.20;;;;;;;;;;5061759;28;20816;-67
2021/07/12 13:56:02;;;;;;;33.13;31.33;;;;;;;;;;5069159;28;20841;-66
2021/07/12 13:58:31;;;;;;;35.40;33.50;;;;;;;;;;5062492;28;20506;-65
2021/07/12 14:00:58;;;;;;;36.97;34.97;;;;;;;;;;5071908;28;20466;-66
2021/07/12 14:03:26;;;;;;;36.83;34.73;;;;;;;;;;5055837;28;20833;-66
2021/07/12 14:05:53;;;;;;;38.53;36.43;;;;;;;;;;5063476;28;20992;-65
2021/07/12 14:08:20;;;;;;;39.33;37.13;;;;;;;;;;5067432;28;20483;-66
2021/07/12 14:10:48;;;;;;;38.30;36.00;;;;;;;;;;5065436;28;20467;-65
2021/07/12 14:13:15;;;;;;;36.80;34.80;;;;;;;;;;5068586;28;20455;-64
2021/07/12 14:15:43;;;;;;;35.30;33.40;;;;;;;;;;5064969;28;20837;-66
2021/07/12 14:18:10;;;;;;;33.23;31.43;;;;;;;;;;5067740;28;21020;-65
2021/07/12 14:20:37;;;;;;;32.23;30.53;;;;;;;;;;5070822;28;20474;-67
2021/07/12 14:23:05;;;;;;;35.27;33.17;;;;;;;;;;5072316;28;20458;-67
2021/07/12 14:25:32;;;;;;;34.97;33.07;;;;;;;;;;5070041;28;20467;-66
2021/07/12 14:27:59;;;;;;;33.03;31.33;;;;;;;;;;5072006;28;20489;-67